Aviation Digital Data Service (ADDS)

Output produced by METARs form (1111 UTC 19 January 2019)
found at http://www.aviationweather.gov/metar/data/
 
OSLK 191100Z 23008KT CAVOK 15/M01 Q1023
OSLK 191100Z 1912/2012 29008KT CAVOK 
     BECMG 1920/1922 08015KT 9999 SCT030
       
OSDI 191100Z 08004KT CAVOK 09/M01 Q1023
OSDI 191100Z 1912/2018 08010KT CAVOK 
     PROB30 
     TEMPO 2000/2007 VRB03KT 0200 FG SCT007 
     BECMG 2008/2010 12010KT 9999 FEW030
       
OSKL 191100Z VRB02KT CAVOK 08/M03 Q1022